Главная страница
METAR-TAF:

METAR-TAF

Аэропорты :

Стокгольм-Бромма

Стокгольм, Швеция

широта: 59-21N, долгота: 017-57E, высота над уровнем моря: 14 м

Текущие метеонаблюдения

Эта сводка был подготовлена 25 минут назад, в 09:20 UTC
Ветер 8 Узел от западный-юго-западный, изменяющийся между южный и западный
Температура 20°C
Влажность 78%
Давление 1020 hPa
Видимость 10 км и более
Рассеянная облачность на высоте 1900 фута

METAR: ESSB 060920Z 24008KT 190V270 9999 BKN019 20/16 Q1020

Время: 11:45 (09:45 UTC)

Прогноз

Эта сводка был подготовлена 1 час и 15 минут назад, в 08:30 UTC
Прогноз действительный с 06-го 09 UTC до 06-го 18 UTC
Ветер 8 Узел от западный-юго-западный
Видимость 10 км и более
Рассеянная облачность на высоте 3000 фута

TAF: ESSB 060830Z 0609/0618 25008KT 9999 BKN030

Метеонаблюдения и прогнозы для более 4000 аэропортов (сводки METAR и TAF).

Имеющиеся станции представлены на карте желтыми и красными точками.

Чтобы увидеть название станции, наведите на нее мышь.

Затем щелкните, чтобы увидеть метеонаблюдения и метеопрогнозы.

Управление картой: чтобы увеличить масштаб, щелкните зеленые кнопки с черным крестиком; чтобы уменьшить масштаб, щелкните зеленую кнопку с тире; для просмотра соседних карт щелкайте зеленые стрелки.


METAR-TAF: